Terminal Aerodrome Forecast
Issued by NWS

Home | Current Version | Previous Version | Text Only | Print | Product List | Glossary On
Versions: 1 2 3 4 5 6 7 8 9 10 11 12
638
FTUS43 KICT 081140
TAFCNU
TAF
KCNU 081140Z 0812/0912 21007KT P6SM SKC
     FM082100 26013KT P6SM BKN050
     FM082200 26007KT P6SM SCT050=

USA.gov is the U.S. government's official web portal to all federal, state and local government web resources and services.